Terminal Aerodrome Forecast
Issued by NWS Missoula, MT

Home | Current Version | Previous Version | Text Only | Print | Product List | Glossary On
Versions: 1 2 3 4 5 6 7 8 9 10 11 12
519
FTUS45 KMSO 241130
TAFMSO
TAF
KMSO 241130Z 2412/2512 34004KT P6SM FEW100
     FM241500 12007KT P6SM SCT060 BKN100
     FM242100 02010G18KT P6SM SCT100 BKN250
     FM250300 10010KT P6SM SCT100 BKN200=

USA.gov is the U.S. government's official web portal to all federal, state and local government web resources and services.